Aérodrome :
LOGIN :

S'inscrire | Disclaimer

   EN    FR    IT 

 










Légende :    VFR   VFR Marginal   IFR   IFR Intensif   IFR Très Intensif
Visi : 
Plafond : 
>= 8 km
>= 3000ft
5 à 8 km
1000 à 3000 ft
1500m à 5 km
500 à 1000 ft
800 à 1500m
200 à 500 ft
< 800m
< 200 ft
Symboles :   Orages  Brouillard  Fortes neiges  Fortes précipitations  Vent > 20 kt
SIGMETs :   Divers  Orages  Givrage  Turbulence  Onde Orograph.  Cendres Volcan.






- Altitude de l'aérodrome : 31 ft
- Code IATA : INV


EGPE - Inverness

DERNIER METAR :
  • 081850Z 06001KT 9999 FEW005 BKN022 06/05 Q1025

METARs EXPIRÉS :
  • 081820Z 08004KT 9000 FEW005 SCT012 BKN028 06/05 Q1025
  • 081750Z 05006KT 7000 FEW006 SCT012 BKN020 06/06 Q1025
  • 081720Z 07006KT 4000 VCSH FEW005 SCT010 BKN020 07/06 Q1024
  • 081620Z 06007KT 3500 VCSH FEW007 SCT010 BKN025 07/06 Q1024

TAF TAF EGPE
Valide du 08 à 18h jusqu'au 09 à 03h UTC


081658Z 0818/0903 22005KT 9999 FEW005
PROB30
TEMPO 0818/0819 4000 RADZ BKN005
ATIS : +44 1667 464 255



MET'MAP, la Météo Aéronautique d'un coup d'oeil ! - Copyright ORBIFLY Décembre 2007 - Disclaimer

ORBIFLY MET'MAP TEAM :

Programmation & Développement : Alexandra Zaïnal
Sur une idée originale de : Baudouin d'Aumeries
Assistance à la programmation : Marc-Olivier Méhu
Soutien technique & logistique : Manuel Goepfert

Contact : metmap@orbifly.com




SOURCES & CREDITS :

   NOAA